Aeroporto :
LOGIN :

Iscrizione | Disclaimer

   EN    FR    IT 

 










Sommario :    VFR   VFR Marginale   IFR   IFR Intensivo   IFR Molto Intensivo
Visibilità : 
Base nubi : 
>= 8 km
>= 3000ft
5 / 8 km
1000 / 3000 ft
1500m / 5 km
500 / 1000 ft
800 / 1500m
200 / 500 ft
< 800m
< 200 ft
Simboli :   Temporali  Nebbia  Neve Forte  Precipitazioni Forti  Vento > 20 kt
SIGMETs :   Varie  Temporali  Ghiacco  Turbolenza  Onda orograficha  Ceneri Vulcaniche






- Altitudine del aeroporto : 22 ft
- Codice IATA : LDY


EGAE - Londonderry Eglington

ULTIMO METAR :
  • 231220Z 20019KT 9999 -RA FEW015 BKN041 13/10 Q1002

METARs OBSOLETI :
  • 231150Z 21021KT 9999 -RA FEW015 SCT048 12/09 Q1003
  • 231120Z 21021G31KT 9999 -SHRA FEW016 12/09 Q1003
  • 231050Z 21023G33KT 9999 -RA FEW016 SCT035 13/09 Q1003
  • 231020Z 21023G33KT 9999 FEW023 SCT030 13/09 Q1003
  • 230950Z 20015G27KT 9999 FEW023 SCT030 12/09 Q1004

TAF TAF EGAE
Valido dal 23 a 12 ore il 23 a 21 ore UTC


231105Z 2312/2321 20015KT 9999 FEW018 SCT035
TEMPO 2312/2321 20021G33KT
PROB40
TEMPO 2312/2320 7000 -RADZ RA BKN014



MetMap, La meteo Aeronautica in un colpo d'occhio ! - Copyright ORBIFLY Dicembre 2007 - Disclaimer

ORBIFLY MET'MAP TEAM :

Programmazione e sviluppo : Alexandra Zaïnal
Concezione e sviluppo : Baudouin d'Aumeries
Co-Programmazione e sviluppo : Marc-Olivier Méhu
Supporto tecnico e logistico : Manuel Goepfert
Aiuto per la traduzione : Arnaldo La Scala

Contatto : metmap@orbifly.com




FONTI E CREDITI :

   NOAA